Alsask, Canada
Current Conditions -  °F | °C
As of 7:00 AM on Saturday 20 Dec 2014 (Local Time) from CYKY Reporting Station
Haze Haze  
Wind Chill: 15°   Ceiling: 4000
Heat Index: 23°   Visibility: 10mi
Dew Point: 21°   Wind: 7mph
Humidity: 93%   Direction: 290°WNW
Pressure: 29.69"   Gusts: NA
Location:  51.37°N, 109.98°W
Report Text: CYKY 201300Z 29006KT 10SM BR BKN040 M05/M06 A2969 RMK SC5 FG SLP092
Loading
Personal Weather Stations






























Interactive Weather Map New forecast layout! Learn more

10-Day Weather Forecast

Advertisements
Track Severe Weather on mobile